Time;durP1;ratioP1;P1;durP2;ratioP2;P2;SDS_P1;SDS_P2;PMS_P1;PMS_P2;Temp;Humidity;BMP_temperature;BMP_pressure;BME280_temperature;BME280_humidity;BME280_pressure;Samples;Min_cycle;Max_cycle;Signal;HPM_P1;HPM_P2
2021/12/25 00:00:07;;;;;;;1999.90;999.90;;;;;;;2.14;100.00;162968.34;5040439;28;20087;-69
2021/12/25 00:02:35;;;;;;;1999.90;999.90;;;;;;;2.38;100.00;163032.75;5030533;28;20424;-69
2021/12/25 00:05:04;;;;;;;1999.90;999.90;;;;;;;2.53;100.00;163071.06;5029014;28;20052;-69
2021/12/25 00:07:32;;;;;;;1999.90;999.90;;;;;;;2.43;100.00;163045.06;5027814;28;20107;-70
2021/12/25 00:10:00;;;;;;;1999.90;999.90;;;;;;;2.32;100.00;163014.91;5029480;28;20080;-70
2021/12/25 00:12:27;;;;;;;1999.90;999.90;;;;;;;2.38;100.00;163031.34;5034170;28;20114;-70
2021/12/25 00:14:54;;;;;;;1999.90;999.90;;;;;;;2.01;100.00;162934.16;5030236;28;20720;-69
2021/12/25 00:17:21;;;;;;;1999.90;999.90;;;;;;;1.96;100.00;162919.09;5031635;28;20326;-69
2021/12/25 00:19:47;;;;;;;1999.90;999.90;;;;;;;1.76;100.00;162868.41;5030789;28;20046;-69
2021/12/25 00:22:14;;;;;;;1999.90;999.90;;;;;;;1.44;100.00;162780.81;5038289;28;20134;-69
2021/12/25 00:24:44;;;;;;;1999.90;999.90;;;;;;;1.64;100.00;162834.19;5036320;28;20104;-69
2021/12/25 00:30:18;;;;;;;1999.90;999.90;;;;;;;0.89;100.00;162635.78;5041934;28;20128;-68
2021/12/25 00:32:54;;;;;;;1999.90;999.90;;;;;;;1.01;100.00;162667.25;5043163;28;20045;-69
2021/12/25 00:35:21;;;;;;;1999.90;999.90;;;;;;;1.52;100.00;162804.09;5036351;28;20073;-69
2021/12/25 00:37:47;;;;;;;1999.90;999.90;;;;;;;1.81;100.00;162880.72;5029370;28;20073;-69
2021/12/25 00:40:14;;;;;;;1999.90;999.90;;;;;;;2.28;100.00;163005.34;5037691;28;20398;-69
2021/12/25 00:42:41;;;;;;;1999.90;999.90;;;;;;;2.13;100.00;162965.66;5038617;28;20068;-69
2021/12/25 00:45:08;;;;;;;1999.90;999.90;;;;;;;1.66;100.00;162841.03;5039613;28;20057;-69
2021/12/25 00:47:34;;;;;;;1999.90;999.90;;;;;;;1.49;100.00;162794.50;5041731;28;20433;-69
2021/12/25 00:50:02;;;;;;;1999.90;999.90;;;;;;;1.64;100.00;162834.19;5042154;28;20091;-69
2021/12/25 00:52:28;;;;;;;1999.90;999.90;;;;;;;1.43;100.00;162779.47;5048851;28;20064;-69
2021/12/25 00:54:55;;;;;;;1999.90;999.90;;;;;;;1.74;100.00;162862.97;5040305;28;20096;-69
2021/12/25 00:57:22;;;;;;;1999.90;999.90;;;;;;;1.79;100.00;162873.88;5041699;28;20437;-69
2021/12/25 00:59:49;;;;;;;1999.90;999.90;;;;;;;1.58;100.00;162820.50;5032992;28;20045;-69
2021/12/25 01:02:15;;;;;;;1999.90;999.90;;;;;;;1.14;100.00;162701.47;5045637;28;20476;-68
2021/12/25 01:04:42;;;;;;;1999.90;999.90;;;;;;;1.45;100.00;162783.59;5043139;28;20053;-69
2021/12/25 01:07:09;;;;;;;1999.90;999.90;;;;;;;1.14;100.00;162701.47;5041647;28;20045;-69
2021/12/25 01:09:36;;;;;;;1999.90;999.90;;;;;;;1.25;100.00;162731.59;5047884;28;20052;-69
2021/12/25 01:12:04;;;;;;;1999.90;999.90;;;;;;;1.30;100.00;162743.91;5041785;28;20331;-69
2021/12/25 01:41:30;;;;;;;1999.90;999.90;;;;;;;2.26;100.00;162999.84;5037908;28;20121;-69
2021/12/25 01:49:26;;;;;;;1999.90;999.90;;;;;;;1.49;100.00;162794.50;5037965;28;20489;-69
2021/12/25 01:51:53;;;;;;;1999.90;999.90;;;;;;;1.67;100.00;162843.78;5043366;28;20045;-69
2021/12/25 01:54:19;;;;;;;1999.90;999.90;;;;;;;1.39;100.00;162769.88;5045233;28;20105;-69
2021/12/25 01:56:47;;;;;;;1999.90;999.90;;;;;;;1.90;100.00;162904.00;5047074;28;20408;-69
2021/12/25 01:59:14;;;;;;;1999.90;999.90;;;;;;;1.92;100.00;162909.47;5042678;28;20176;-68
2021/12/25 02:01:41;;;;;;;1999.90;999.90;;;;;;;1.45;100.00;162783.59;5041838;28;20084;-69
2021/12/25 02:04:08;;;;;;;1999.90;999.90;;;;;;;1.62;100.00;162830.06;5037896;28;20059;-69
2021/12/25 02:06:35;;;;;;;1999.90;999.90;;;;;;;1.57;100.00;162817.75;5041783;28;20563;-69
2021/12/25 02:09:03;;;;;;;1999.90;999.90;;;;;;;1.57;100.00;162816.41;5045292;28;20073;-68
2021/12/25 02:11:30;;;;;;;1999.90;999.90;;;;;;;1.28;100.00;162738.38;5036527;28;20040;-69
2021/12/25 02:13:58;;;;;;;1999.90;999.90;;;;;;;1.65;100.00;162838.28;5043357;28;20053;-69
2021/12/25 02:16:30;;;;;;;1999.90;999.90;;;;;;;1.65;100.00;162838.28;5036220;28;20087;-69
2021/12/25 02:19:02;;;;;;;1999.90;999.90;;;;;;;1.62;100.00;162830.06;5045998;28;20357;-69
2021/12/25 02:21:37;;;;;;;1999.90;999.90;;;;;;;1.31;100.00;162748.00;5049134;28;20079;-69
2021/12/25 02:24:06;;;;;;;1999.90;999.90;;;;;;;1.11;100.00;162693.25;5038885;28;20185;-69
2021/12/25 02:26:35;;;;;;;1999.90;999.90;;;;;;;1.13;100.00;162700.13;5033788;28;20048;-68
2021/12/25 02:29:02;;;;;;;1999.90;999.90;;;;;;;1.09;100.00;162687.75;5040131;28;20041;-68
2021/12/25 02:31:29;;;;;;;1999.90;999.90;;;;;;;1.48;100.00;162791.78;5042332;28;20099;-68
2021/12/25 02:33:56;;;;;;;1999.90;999.90;;;;;;;1.66;100.00;162839.69;5033053;28;20515;-68
2021/12/25 02:36:22;;;;;;;1999.90;999.90;;;;;;;1.53;100.00;162805.44;5042657;28;20527;-68
2021/12/25 02:38:49;;;;;;;1999.90;999.90;;;;;;;1.58;100.00;162820.50;5040025;28;20464;-68
2021/12/25 02:41:16;;;;;;;1999.90;999.90;;;;;;;1.71;100.00;162853.34;5042438;28;20096;-68
2021/12/25 02:43:45;;;;;;;1999.90;999.90;;;;;;;1.54;100.00;162808.19;5037192;28;20049;-68
2021/12/25 02:46:13;;;;;;;1999.90;999.90;;;;;;;1.75;100.00;162864.31;5041612;28;20076;-68
2021/12/25 02:48:43;;;;;;;1999.90;999.90;;;;;;;1.68;100.00;162846.53;5035848;28;20065;-68
2021/12/25 02:51:11;;;;;;;1999.90;999.90;;;;;;;1.85;100.00;162891.69;5039962;28;20104;-68
2021/12/25 02:53:39;;;;;;;1999.90;999.90;;;;;;;2.07;100.00;162950.56;5038263;28;20438;-68
2021/12/25 02:56:06;;;;;;;1999.90;999.90;;;;;;;1.82;100.00;162882.13;5068112;28;20142;-68
2021/12/25 02:58:33;;;;;;;1999.90;999.90;;;;;;;2.15;100.00;162971.09;5042371;28;20388;-68
2021/12/25 03:01:06;;;;;;;1999.90;999.90;;;;;;;2.18;100.00;162977.97;5040495;28;20086;-68
2021/12/25 03:03:34;;;;;;;1999.90;999.90;;;;;;;2.18;100.00;162977.97;5042179;28;20045;-69
2021/12/25 03:06:03;;;;;;;1999.90;999.90;;;;;;;2.08;100.00;162951.94;5039517;28;20088;-68
2021/12/25 03:08:29;;;;;;;1999.90;999.90;;;;;;;1.80;100.00;162877.97;5040930;28;20088;-68
2021/12/25 03:10:56;;;;;;;1999.90;999.90;;;;;;;2.10;100.00;162957.44;5036153;28;20230;-69
2021/12/25 03:13:33;;;;;;;1999.90;999.90;;;;;;;2.19;100.00;162980.66;5042039;28;20037;-69
2021/12/25 03:16:01;;;;;;;1999.90;999.90;;;;;;;2.05;100.00;162945.06;5038346;28;20041;-68
2021/12/25 03:18:34;;;;;;;1999.90;999.90;;;;;;;2.08;100.00;162953.31;5040642;28;20045;-69
2021/12/25 03:21:03;;;;;;;1999.90;999.90;;;;;;;2.44;100.00;163049.19;5032069;28;20126;-69
2021/12/25 03:23:32;;;;;;;1999.90;999.90;;;;;;;2.39;100.00;163035.47;5039983;28;20079;-68
2021/12/25 03:26:00;;;;;;;1999.90;999.90;;;;;;;2.44;100.00;163049.19;5040819;28;20095;-68
2021/12/25 03:28:30;;;;;;;1999.90;999.90;;;;;;;2.01;100.00;162934.16;5038062;28;20080;-68
2021/12/25 03:31:00;;;;;;;1999.90;999.90;;;;;;;2.16;100.00;162973.88;5037397;28;20587;-68
2021/12/25 03:33:29;;;;;;;1999.90;999.90;;;;;;;2.22;100.00;162988.88;5037462;28;20045;-69
2021/12/25 03:35:57;;;;;;;1999.90;999.90;;;;;;;2.25;100.00;162997.16;5040462;28;20088;-69
2021/12/25 03:38:26;;;;;;;1999.90;999.90;;;;;;;2.33;100.00;163019.03;5052618;28;20080;-68
2021/12/25 03:40:53;;;;;;;1999.90;999.90;;;;;;;2.57;100.00;163083.38;5035616;28;20045;-68
2021/12/25 03:43:20;;;;;;;1999.90;999.90;;;;;;;2.60;100.00;163090.25;5032561;28;20084;-68
2021/12/25 03:45:48;;;;;;;1999.90;999.90;;;;;;;2.77;100.00;163136.84;5046799;28;20056;-68
2021/12/25 03:59:06;;;;;;;1999.90;999.90;;;;;;;-0.20;100.00;162345.88;5039508;28;20396;-67
2021/12/25 04:04:17;;;;;;;1999.90;999.90;;;;;;;0.38;100.00;162499.03;5036029;28;20051;-68
2021/12/25 04:06:55;;;;;;;1999.90;999.90;;;;;;;0.55;100.00;162545.47;5034346;28;20130;-68
2021/12/25 04:09:33;;;;;;;1999.90;999.90;;;;;;;0.38;100.00;162499.03;5039301;28;20049;-68
2021/12/25 04:12:06;;;;;;;1999.90;999.90;;;;;;;0.03;100.00;162406.00;5033079;28;20076;-67
2021/12/25 04:14:33;;;;;;;1999.90;999.90;;;;;;;-0.03;100.00;162390.97;5045815;28;20091;-68
2021/12/25 04:16:59;;;;;;;1999.90;999.90;;;;;;;0.08;100.00;162419.72;5035930;28;20099;-69
2021/12/25 04:19:26;;;;;;;1999.90;999.90;;;;;;;0.04;100.00;162408.78;5038791;28;20213;-68
2021/12/25 04:24:24;;;;;;;1999.90;999.90;;;;;;;-0.52;100.00;162259.75;5041718;28;20045;-67
2021/12/25 04:26:51;;;;;;;1999.90;999.90;;;;;;;-0.07;100.00;162380.06;5033339;28;20045;-67
2021/12/25 04:47:43;;;;;;;1999.90;999.90;;;;;;;0.53;100.00;162541.38;5041017;28;20437;-67
2021/12/25 05:02:47;;;;;;;1999.90;999.90;;;;;;;-1.87;100.00;161903.28;5045915;28;20092;-67
2021/12/25 05:05:17;;;;;;;1999.90;999.90;;;;;;;-2.05;100.00;161855.50;5034495;28;20127;-67
2021/12/25 05:07:44;;;;;;;1999.90;999.90;;;;;;;-1.61;100.00;161971.53;5042811;28;20430;-67
2021/12/25 05:10:11;;;;;;;1999.90;999.90;;;;;;;-1.75;100.00;161934.69;5035534;28;20076;-67
2021/12/25 05:12:37;;;;;;;1999.90;999.90;;;;;;;-1.64;100.00;161964.75;5037050;28;20049;-67
2021/12/25 05:15:04;;;;;;;1999.90;999.90;;;;;;;-1.80;100.00;161921.06;5041084;28;20084;-67
2021/12/25 05:17:31;;;;;;;1999.90;999.90;;;;;;;-1.75;100.00;161933.34;5038935;28;20045;-67
2021/12/25 05:19:59;;;;;;;1999.90;999.90;;;;;;;-1.58;100.00;161979.72;5042273;28;20122;-68
2021/12/25 05:22:26;;;;;;;1999.90;999.90;;;;;;;-1.83;100.00;161912.81;5039393;28;20045;-68
2021/12/25 05:24:53;;;;;;;1999.90;999.90;;;;;;;-1.59;100.00;161977.03;5043646;28;20386;-67
2021/12/25 05:27:20;;;;;;;1999.90;999.90;;;;;;;-1.43;100.00;162020.72;5044066;28;20080;-67
2021/12/25 05:29:47;;;;;;;1999.90;999.90;;;;;;;-1.28;100.00;162058.91;5040403;28;20106;-68
2021/12/25 05:32:17;;;;;;;1999.90;999.90;;;;;;;-1.60;100.00;161974.28;5035169;28;20443;-67
2021/12/25 05:34:44;;;;;;;1999.90;999.90;;;;;;;-1.38;100.00;162031.66;5045073;28;20475;-67
2021/12/25 05:37:10;;;;;;;1999.90;999.90;;;;;;;-1.25;100.00;162068.50;5044588;28;20121;-67
2021/12/25 05:39:38;;;;;;;1999.90;999.90;;;;;;;-1.03;100.00;162124.50;5046002;28;20092;-67
2021/12/25 05:42:05;;;;;;;1999.90;999.90;;;;;;;-0.95;100.00;162147.75;5038416;28;20048;-67
2021/12/25 05:44:31;;;;;;;1999.90;999.90;;;;;;;-0.72;100.00;162209.19;5041821;28;20745;-67
2021/12/25 05:46:58;;;;;;;1999.90;999.90;;;;;;;-0.64;100.00;162228.31;5043155;28;20118;-67
2021/12/25 05:49:24;;;;;;;1999.90;999.90;;;;;;;-0.42;100.00;162288.44;5045896;28;20118;-67
2021/12/25 05:51:51;;;;;;;1999.90;999.90;;;;;;;-0.95;100.00;162147.75;5041300;28;20349;-67
2021/12/25 05:54:18;;;;;;;1999.90;999.90;;;;;;;-0.52;100.00;162261.16;5037311;28;20257;-67
2021/12/25 05:56:44;;;;;;;1999.90;999.90;;;;;;;-1.19;100.00;162082.16;5047892;28;20309;-68
2021/12/25 05:59:11;;;;;;;1999.90;999.90;;;;;;;-0.79;100.00;162190.09;5042689;28;20569;-67
2021/12/25 06:01:38;;;;;;;1999.90;999.90;;;;;;;-0.77;100.00;162195.56;5043470;28;20081;-67
2021/12/25 06:04:05;;;;;;;1999.90;999.90;;;;;;;-0.23;100.00;162337.69;5041553;28;20063;-68
2021/12/25 06:06:32;;;;;;;1999.90;999.90;;;;;;;-0.51;100.00;162263.84;5044559;28;20053;-67
2021/12/25 06:08:59;;;;;;;1999.90;999.90;;;;;;;-0.24;100.00;162334.94;5038556;28;20080;-67
2021/12/25 06:11:25;;;;;;;1999.90;999.90;;;;;;;0.13;100.00;162433.38;5041343;28;20080;-67
2021/12/25 06:14:05;;;;;;;1999.90;999.90;;;;;;;0.13;100.00;162433.38;5035431;28;20156;-67
2021/12/25 06:16:31;;;;;;;1999.90;999.90;;;;;;;-0.25;100.00;162332.22;5039723;28;20146;-67
2021/12/25 06:18:58;;;;;;;1999.90;999.90;;;;;;;-0.15;100.00;162359.53;5043808;28;20049;-67
2021/12/25 06:21:26;;;;;;;1999.90;999.90;;;;;;;-0.12;100.00;162366.38;5041317;28;20049;-67
2021/12/25 06:23:52;;;;;;;1999.90;999.90;;;;;;;-0.51;99.98;162262.50;5037861;28;20099;-67
2021/12/25 06:26:34;;;;;;;1999.90;999.90;;;;;;;-0.66;100.00;162224.22;5035782;28;20564;-67
2021/12/25 06:29:02;;;;;;;1999.90;999.90;;;;;;;-0.66;100.00;162222.88;5042681;28;20079;-67
2021/12/25 06:31:28;;;;;;;1999.90;999.90;;;;;;;-0.58;100.00;162246.13;5044972;28;20385;-67
2021/12/25 06:33:57;;;;;;;1999.90;999.90;;;;;;;-0.67;100.00;162220.13;5045089;28;20033;-67
2021/12/25 06:36:23;;;;;;;1999.90;999.90;;;;;;;-0.69;100.00;162214.69;5034213;28;20096;-67
2021/12/25 06:38:50;;;;;;;1999.90;999.90;;;;;;;-0.32;100.00;162313.09;5043065;28;20434;-67
2021/12/25 06:41:16;;;;;;;1999.90;999.90;;;;;;;-0.77;100.00;162194.19;5045091;28;20045;-67
2021/12/25 06:43:43;;;;;;;1999.90;999.90;;;;;;;-1.38;100.00;162031.66;5035584;28;20080;-67
2021/12/25 06:46:09;;;;;;;1999.90;999.90;;;;;;;-1.78;100.00;161927.84;5045141;28;20434;-67
2021/12/25 06:48:37;;;;;;;1999.90;999.90;;;;;;;-1.97;100.00;161875.97;5039919;28;20063;-67
2021/12/25 06:51:04;;;;;;;1999.90;999.90;;;;;;;-2.18;100.00;161820.00;5033579;28;20095;-66
2021/12/25 06:53:30;;;;;;;1999.90;999.90;;;;;;;-2.29;100.00;161791.38;5039962;28;20099;-67
2021/12/25 06:55:57;;;;;;;1999.90;999.90;;;;;;;-2.50;100.00;161736.78;5047080;28;20493;-67
2021/12/25 06:58:23;;;;;;;1999.90;999.90;;;;;;;-2.15;100.00;161828.19;5041553;28;20076;-67
2021/12/25 07:00:50;;;;;;;1999.90;999.90;;;;;;;-2.20;100.00;161815.91;5044586;28;20504;-67
2021/12/25 07:03:17;;;;;;;1999.90;999.90;;;;;;;-2.19;100.00;161818.66;5034324;28;20308;-67
2021/12/25 07:05:43;;;;;;;1999.90;999.90;;;;;;;-2.14;100.00;161832.28;5041695;28;20132;-67
2021/12/25 07:08:10;;;;;;;1999.90;999.90;;;;;;;-2.41;100.00;161758.56;5039158;28;20085;-67
2021/12/25 07:10:36;;;;;;;1999.90;999.90;;;;;;;-2.98;100.00;161607.16;5041588;28;20045;-67
2021/12/25 07:13:03;;;;;;;1999.90;999.90;;;;;;;-2.67;100.00;161690.38;5039681;28;20140;-67
2021/12/25 07:15:30;;;;;;;1999.90;999.90;;;;;;;-2.91;100.00;161627.59;5042532;28;20041;-67
2021/12/25 07:17:56;;;;;;;1999.90;999.90;;;;;;;-2.68;100.00;161689.03;5045152;28;20049;-67
2021/12/25 07:20:23;;;;;;;1999.90;999.90;;;;;;;-2.59;100.00;161712.22;5054877;28;20423;-67
2021/12/25 07:22:49;;;;;;;1999.90;999.90;;;;;;;-2.87;100.00;161638.53;5040555;28;20049;-67
2021/12/25 07:25:16;;;;;;;1999.90;999.90;;;;;;;-3.50;100.00;161469.41;5036477;28;20471;-67
2021/12/25 07:27:42;;;;;;;1999.90;999.90;;;;;;;-3.27;100.00;161532.13;5046484;28;20046;-67
2021/12/25 07:30:09;;;;;;;1999.90;999.90;;;;;;;-3.15;100.00;161562.16;5044369;28;20056;-68
2021/12/25 07:32:36;;;;;;;1999.90;999.90;;;;;;;-3.17;100.00;161558.06;5041930;28;20103;-67
2021/12/25 07:35:04;;;;;;;1999.90;999.90;;;;;;;-3.24;100.00;161540.31;5034642;28;20399;-67
2021/12/25 07:37:31;;;;;;;1999.90;999.90;;;;;;;-2.62;99.37;161702.63;5040666;28;20530;-67
2021/12/25 07:39:57;;;;;;;1999.90;999.90;;;;;;;-2.74;99.68;161671.25;5040085;28;20468;-67
2021/12/25 07:42:25;;;;;;;1999.90;999.90;;;;;;;-2.69;100.00;161684.94;5045031;28;20049;-67
2021/12/25 07:44:55;;;;;;;1999.90;999.90;;;;;;;-2.87;100.00;161638.53;5041320;28;20041;-67
2021/12/25 07:47:23;;;;;;;1999.90;999.90;;;;;;;-2.49;100.00;161739.50;5037955;28;20068;-67
2021/12/25 07:49:50;;;;;;;1999.90;999.90;;;;;;;-2.22;99.11;161810.47;5046304;28;20089;-67
2021/12/25 07:52:16;;;;;;;1999.90;999.90;;;;;;;-2.57;100.00;161717.66;5038072;28;20076;-67
2021/12/25 07:54:43;;;;;;;1999.90;999.90;;;;;;;-2.41;100.00;161759.97;5042785;28;20099;-67
2021/12/25 07:57:10;;;;;;;1999.90;999.90;;;;;;;-2.44;100.00;161750.38;5036264;28;20095;-67
2021/12/25 07:59:36;;;;;;;1999.90;999.90;;;;;;;-2.10;99.94;161840.47;5043972;28;20441;-67
2021/12/25 08:02:03;;;;;;;1999.90;999.90;;;;;;;-2.32;100.00;161784.53;5035254;28;20450;-67
2021/12/25 08:04:30;;;;;;;1999.90;999.90;;;;;;;-2.27;100.00;161796.81;5043034;28;20110;-67
2021/12/25 08:06:56;;;;;;;1999.90;999.90;;;;;;;-1.79;98.43;161925.16;5042438;28;20153;-67
2021/12/25 08:09:29;;;;;;;1999.90;999.90;;;;;;;-1.70;96.92;161946.97;5039162;28;20103;-67
2021/12/25 08:11:57;;;;;;;1999.90;999.90;;;;;;;-1.67;97.44;161955.16;5041615;28;20052;-67
2021/12/25 08:14:25;;;;;;;1999.90;999.90;;;;;;;-2.18;99.20;161821.34;5039733;28;20053;-67
2021/12/25 08:16:53;;;;;;;1999.90;999.90;;;;;;;-1.79;97.90;161925.16;5035176;28;20057;-67
2021/12/25 08:19:21;;;;;;;1999.90;999.90;;;;;;;-2.00;98.51;161869.13;5038569;28;20122;-67
2021/12/25 08:21:48;;;;;;;1999.90;999.90;;;;;;;-1.60;98.52;161974.28;5041182;28;20295;-67
2021/12/25 08:24:16;;;;;;;1999.90;999.90;;;;;;;-1.59;97.29;161977.03;5037215;28;20049;-67
2021/12/25 08:26:44;;;;;;;1999.90;999.90;;;;;;;-1.70;97.99;161948.31;5044494;28;20476;-67
2021/12/25 08:29:11;;;;;;;1999.90;999.90;;;;;;;-1.99;97.93;161871.88;5068947;28;20052;-67
2021/12/25 08:31:38;;;;;;;1999.90;999.90;;;;;;;-2.09;99.66;161843.22;5038933;28;20085;-67
2021/12/25 08:34:05;;;;;;;1999.90;999.90;;;;;;;-2.15;99.78;161829.53;5036755;28;20434;-67
2021/12/25 08:36:31;;;;;;;1999.90;999.90;;;;;;;-1.75;97.58;161934.69;5042102;28;20513;-67
2021/12/25 08:38:59;;;;;;;1999.90;999.90;;;;;;;-1.99;96.94;161870.53;5034851;28;20085;-67
2021/12/25 08:41:28;;;;;;;1999.90;999.90;;;;;;;-2.71;98.72;161679.44;5034294;28;20126;-67
2021/12/25 08:44:00;;;;;;;1999.90;999.90;;;;;;;-2.02;97.06;161862.34;5030915;28;20073;-67
2021/12/25 08:46:54;;;;;;;1999.90;999.90;;;;;;;-1.99;96.39;161870.53;5032615;28;20653;-67
2021/12/25 08:49:17;;;;;;;1999.90;999.90;;;;;;;-2.05;96.87;161854.16;5033121;28;20050;-67
2021/12/25 08:51:44;;;;;;;1999.90;999.90;;;;;;;-1.74;96.25;161937.44;5030523;28;20073;-67
2021/12/25 08:54:12;;;;;;;1999.90;999.90;;;;;;;-2.49;97.11;161739.50;5033548;28;20099;-67
2021/12/25 08:56:40;;;;;;;1999.90;999.90;;;;;;;-2.63;98.54;161701.28;5033789;28;20134;-67
2021/12/25 08:59:06;;;;;;;1999.90;999.90;;;;;;;-2.80;99.74;161654.88;5031029;28;20503;-68
2021/12/25 09:01:34;;;;;;;1999.90;999.90;;;;;;;-2.42;99.23;161755.88;5031200;28;20099;-67
2021/12/25 09:04:02;;;;;;;1999.90;999.90;;;;;;;-2.14;98.46;161832.28;5032063;28;20333;-68
2021/12/25 09:06:29;;;;;;;1999.90;999.90;;;;;;;-2.42;98.28;161755.88;5030246;28;20049;-67
2021/12/25 09:09:00;;;;;;;;;;;;;;;-2.48;98.55;161742.22;5035003;28;20103;-67
2021/12/25 09:11:27;;;;;;;1999.90;999.90;;;;;;;-2.59;100.00;161712.22;5041525;28;19975;-68
2021/12/25 09:13:53;;;;;;;1999.90;999.90;;;;;;;-2.44;98.89;161750.38;5047249;28;20045;-67
2021/12/25 09:16:20;;;;;;;1999.90;999.90;;;;;;;-2.01;97.80;161865.03;5042050;28;20053;-67
2021/12/25 09:18:47;;;;;;;1999.90;999.90;;;;;;;-2.32;97.50;161783.19;5041004;28;21138;-66
2021/12/25 09:21:13;;;;;;;1999.90;999.90;;;;;;;-2.84;99.47;161645.38;5040283;28;20063;-66
2021/12/25 09:23:40;;;;;;;1999.90;999.90;;;;;;;-2.65;99.77;161695.81;5045427;28;20158;-67
2021/12/25 09:26:07;;;;;;;1999.90;999.90;;;;;;;-2.68;98.84;161689.03;5040486;28;20113;-67
2021/12/25 09:28:33;;;;;;;1999.90;999.90;;;;;;;-2.62;98.80;161704.03;5041665;28;20154;-67
2021/12/25 09:31:00;;;;;;;1999.90;999.90;;;;;;;-2.84;99.88;161646.72;5045855;28;20037;-67
2021/12/25 09:33:27;;;;;;;1999.90;999.90;;;;;;;-2.17;98.56;161822.75;5048141;28;20751;-67
2021/12/25 09:35:53;;;;;;;1999.90;999.90;;;;;;;-2.41;98.12;161758.56;5048014;28;20427;-66
2021/12/25 09:38:20;;;;;;;1999.90;999.90;;;;;;;-2.42;98.15;161757.22;5043618;28;20510;-66
2021/12/25 09:40:47;;;;;;;1999.90;999.90;;;;;;;-2.50;98.02;161736.78;5041623;28;20167;-67
2021/12/25 09:43:14;;;;;;;1999.90;999.90;;;;;;;-2.21;97.27;161811.81;5037928;28;20405;-66
2021/12/25 09:45:41;;;;;;;1999.90;999.90;;;;;;;-2.12;96.75;161837.72;5046530;28;20073;-66
2021/12/25 09:48:07;;;;;;;1999.90;999.90;;;;;;;-2.42;97.04;161755.88;5042337;28;20135;-67
2021/12/25 09:50:34;;;;;;;1999.90;999.90;;;;;;;-2.16;96.21;161826.84;5049448;28;20045;-67
2021/12/25 09:53:05;;;;;;;1999.90;999.90;;;;;;;-1.91;95.37;161891.00;5042366;28;20088;-67
2021/12/25 09:55:32;;;;;;;;;;;;;;;-2.07;95.44;161848.66;5045340;28;20438;-67
2021/12/25 09:57:58;;;;;;;1999.90;999.90;;;;;;;-1.72;94.09;161941.53;5047446;28;19983;-66
2021/12/25 10:00:27;;;;;;;1999.90;999.90;;;;;;;-2.13;94.05;161833.63;5042525;28;20110;-67
2021/12/25 10:03:14;;;;;;;1999.90;999.90;;;;;;;-2.45;94.66;161747.69;5043569;28;20457;-66
2021/12/25 10:05:46;;;;;;;1999.90;999.90;;;;;;;-2.63;94.86;161701.28;5039144;28;20439;-66
2021/12/25 10:08:19;;;;;;;1999.90;999.90;;;;;;;-2.43;96.56;161753.13;5037051;28;20446;-66
2021/12/25 10:10:55;;;;;;;1999.90;999.90;;;;;;;-2.40;95.61;161762.66;5046273;28;20103;-66
2021/12/25 10:13:28;;;;;;;1999.90;999.90;;;;;;;-1.97;94.28;161875.97;5045462;28;20048;-66
2021/12/25 10:16:15;;;;;;;1999.90;999.90;;;;;;;-1.74;93.56;161936.03;5046024;28;20131;-66
2021/12/25 10:18:42;;;;;;;1999.90;999.90;;;;;;;-1.64;93.19;161963.34;5040900;28;20045;-66
2021/12/25 10:21:23;;;;;;;1999.90;999.90;;;;;;;-1.86;93.97;161906.03;5041544;28;20057;-66
2021/12/25 10:24:02;;;;;;;;;;;;;;;-2.18;94.53;161820.00;5035296;28;20433;-66
2021/12/25 10:26:29;;;;;;;1999.90;999.90;;;;;;;-2.76;97.24;161667.16;5048384;28;19982;-66
2021/12/25 10:28:55;;;;;;;1999.90;999.90;;;;;;;-2.25;96.18;161802.25;5074967;28;20049;-66
2021/12/25 10:31:31;;;;;;;1999.90;999.90;;;;;;;-2.30;95.53;161789.97;5041192;28;20493;-67
2021/12/25 10:33:58;;;;;;;1999.90;999.90;;;;;;;-1.92;94.50;161889.66;5048152;28;20102;-67
2021/12/25 10:36:33;;;;;;;1999.90;999.90;;;;;;;-2.03;94.62;161859.59;5042475;28;20088;-66
2021/12/25 10:38:59;;;;;;;1999.90;999.90;;;;;;;-2.29;95.70;161791.38;5045555;28;20053;-67
2021/12/25 10:41:26;;;;;;;1999.90;999.90;;;;;;;-2.30;95.78;161788.63;5038892;28;20087;-66
2021/12/25 10:44:16;;;;;;;1999.90;999.90;;;;;;;-2.54;97.39;161725.84;5045521;28;20049;-67
2021/12/25 10:46:47;;;;;;;1999.90;999.90;;;;;;;-2.53;96.38;161728.59;5042300;28;20044;-67
2021/12/25 10:49:14;;;;;;;1999.90;999.90;;;;;;;-1.69;94.37;161949.72;5036105;28;20064;-67
2021/12/25 10:51:41;;;;;;;1999.90;999.90;;;;;;;-2.39;94.84;161764.06;5048862;28;20084;-67
2021/12/25 10:54:11;;;;;;;1999.90;999.90;;;;;;;-2.29;95.57;161791.38;5040740;28;20048;-67
2021/12/25 10:56:40;;;;;;;1999.90;999.90;;;;;;;-1.95;94.57;161882.81;5038335;28;20052;-67
2021/12/25 10:59:13;;;;;;;1999.90;999.90;;;;;;;-2.05;93.88;161855.50;5043158;28;20053;-67
2021/12/25 11:01:48;;;;;;;1999.90;999.90;;;;;;;-2.00;93.32;161869.13;5040243;28;20056;-67
2021/12/25 11:04:44;;;;;;;1999.90;999.90;;;;;;;-1.62;91.87;161970.19;5036644;28;20095;-67
2021/12/25 11:07:16;;;;;;;1999.90;999.90;;;;;;;-1.83;90.91;161914.22;5032100;28;20106;-67
2021/12/25 11:10:05;;;;;;;1999.90;999.90;;;;;;;-1.87;91.17;161901.94;5044168;28;20074;-67
2021/12/25 11:12:34;;;;;;;1999.90;999.90;;;;;;;-1.75;91.33;161934.69;5041064;28;20444;-67
2021/12/25 11:15:19;;;;;;;1999.90;999.90;;;;;;;-2.05;90.87;161855.50;5044891;28;20082;-67
2021/12/25 11:17:51;;;;;;;1999.90;999.90;;;;;;;-2.23;93.00;161807.72;5042398;28;20107;-67
2021/12/25 11:20:33;;;;;;;1999.90;999.90;;;;;;;-1.73;91.31;161938.78;5040838;28;20057;-67
2021/12/25 11:23:03;;;;;;;1999.90;999.90;;;;;;;-1.58;91.18;161979.72;5043308;28;20087;-67
2021/12/25 11:25:32;;;;;;;1999.90;999.90;;;;;;;-1.69;91.01;161951.06;5042956;28;20077;-67
2021/12/25 11:28:00;;;;;;;1999.90;999.90;;;;;;;-2.06;91.85;161851.41;5042369;28;20422;-67
2021/12/25 11:30:31;;;;;;;1999.90;999.90;;;;;;;-2.79;93.53;161657.63;5039899;28;20381;-67
2021/12/25 11:32:58;;;;;;;1999.90;999.90;;;;;;;-2.00;92.48;161867.78;5039336;28;20581;-67
2021/12/25 11:35:26;;;;;;;1999.90;999.90;;;;;;;-2.20;93.91;161815.91;5061647;28;20049;-67
2021/12/25 11:37:55;;;;;;;1999.90;999.90;;;;;;;-1.66;92.11;161957.91;5041438;28;20102;-67
2021/12/25 11:40:25;;;;;;;1999.90;999.90;;;;;;;-1.88;91.81;161899.19;5044949;28;20091;-67
2021/12/25 11:42:54;;;;;;;1999.90;999.90;;;;;;;-1.35;90.76;162039.84;5033637;28;20385;-67
2021/12/25 11:45:29;;;;;;;1999.90;999.90;;;;;;;-1.52;89.92;161996.16;5036044;28;20143;-67
2021/12/25 11:47:59;;;;;;;1999.90;999.90;;;;;;;-1.69;91.51;161951.06;5042845;28;20445;-67
2021/12/25 11:50:32;;;;;;;1999.90;999.90;;;;;;;-1.74;90.58;161936.03;5038042;28;20048;-67
2021/12/25 11:53:05;;;;;;;1999.90;999.90;;;;;;;-2.24;92.52;161803.63;5039381;28;20338;-67
2021/12/25 11:58:36;;;;;;;1999.90;999.90;;;;;;;-1.98;92.23;161873.22;5039386;28;20053;-67
2021/12/25 12:01:21;;;;;;;1999.90;999.90;;;;;;;-1.47;91.31;162008.44;5035477;28;20095;-67
2021/12/25 12:03:56;;;;;;;1999.90;999.90;;;;;;;-1.95;92.24;161882.81;5040480;28;20388;-67
2021/12/25 12:09:48;;;;;;;1999.90;999.90;;;;;;;-1.65;90.72;161962.00;5034344;28;20081;-68
2021/12/25 12:12:22;;;;;;;1999.90;999.90;;;;;;;-1.88;91.99;161899.19;5046685;28;20045;-67
2021/12/25 12:15:24;;;;;;;1999.90;999.90;;;;;;;-2.22;93.34;161809.09;5035397;28;20049;-67
2021/12/25 12:17:51;;;;;;;1999.90;999.90;;;;;;;-1.82;93.39;161916.91;5042982;28;20331;-67
2021/12/25 12:20:42;;;;;;;1999.90;999.90;;;;;;;-2.75;94.66;161669.91;5041002;28;20440;-67